createdAt,value
2022-08-03T00:00:36.742Z,62.38
2022-08-03T00:03:05.505Z,62.21
2022-08-03T00:05:33.986Z,62.40
2022-08-03T00:08:02.569Z,62.89
2022-08-03T00:10:32.083Z,63.02
2022-08-03T00:13:02.584Z,62.56
2022-08-03T00:15:34.408Z,63.15
2022-08-03T00:18:10.076Z,62.70
2022-08-03T00:20:39.567Z,62.82
2022-08-03T00:23:08.809Z,62.55
2022-08-03T00:25:39.155Z,62.82
2022-08-03T00:28:09.763Z,63.00
2022-08-03T00:30:38.625Z,62.58
2022-08-03T00:33:10.286Z,63.20
2022-08-03T00:35:51.034Z,63.12
2022-08-03T00:38:19.329Z,63.27
2022-08-03T00:40:48.824Z,63.55
2022-08-03T00:43:17.304Z,63.01
2022-08-03T00:45:45.490Z,63.13
2022-08-03T00:48:32.899Z,63.81
2022-08-03T00:51:02.083Z,63.73
2022-08-03T00:53:30.360Z,63.89
2022-08-03T00:56:00.362Z,63.69
2022-08-03T00:58:28.589Z,64.13
2022-08-03T01:00:56.704Z,64.13
2022-08-03T01:03:25.012Z,64.19
2022-08-03T01:05:57.039Z,63.90
2022-08-03T01:08:47.286Z,63.84
2022-08-03T01:11:25.230Z,64.01
2022-08-03T01:14:18.094Z,63.43
2022-08-03T01:16:53.449Z,62.80
2022-08-03T01:19:39.980Z,63.76
2022-08-03T01:22:25.072Z,63.90
2022-08-03T01:25:03.947Z,64.15
2022-08-03T01:27:44.511Z,64.03
2022-08-03T01:30:14.248Z,64.50
2022-08-03T01:32:53.579Z,64.34
2022-08-03T01:35:38.540Z,64.69
2022-08-03T01:38:12.618Z,63.88
2022-08-03T01:40:42.627Z,64.27
2022-08-03T01:43:13.288Z,63.90
2022-08-03T01:45:45.828Z,64.45
2022-08-03T01:48:17.190Z,63.92
2022-08-03T01:50:47.508Z,63.78
2022-08-03T01:53:18.878Z,63.83
2022-08-03T01:55:48.407Z,63.19
2022-08-03T01:58:22.778Z,63.33
2022-08-03T02:00:54.910Z,63.33
2022-08-03T02:03:28.352Z,63.00
2022-08-03T02:06:40.966Z,63.27
2022-08-03T02:08:52.454Z,63.73
2022-08-03T02:11:23.105Z,63.90
2022-08-03T02:13:52.758Z,64.30
2022-08-03T02:16:23.413Z,64.34
2022-08-03T02:18:52.704Z,64.12
2022-08-03T02:21:56.965Z,64.44
2022-08-03T02:24:12.272Z,63.74
2022-08-03T02:26:42.812Z,64.01
2022-08-03T02:29:18.424Z,64.13
2022-08-03T02:31:50.383Z,64.85
2022-08-03T02:34:22.332Z,65.10
2022-08-03T02:36:55.317Z,65.10
2022-08-03T02:39:32.039Z,64.91
2022-08-03T02:42:05.165Z,65.33
2022-08-03T02:44:37.057Z,65.58
2022-08-03T02:47:13.208Z,66.42
2022-08-03T02:49:50.584Z,65.74
2022-08-03T02:52:23.679Z,65.74
2022-08-03T02:54:56.470Z,65.81
2022-08-03T02:57:29.837Z,65.88
2022-08-03T03:00:02.678Z,65.18
2022-08-03T03:02:34.029Z,64.98
2022-08-03T03:05:55.893Z,65.03
2022-08-03T03:07:56.629Z,65.28
2022-08-03T03:10:28.698Z,66.13
2022-08-03T03:13:01.659Z,65.71
2022-08-03T03:15:32.979Z,65.61
2022-08-03T03:18:06.978Z,65.29
2022-08-03T03:20:35.883Z,65.45
2022-08-03T03:23:07.023Z,65.37
2022-08-03T03:25:38.031Z,65.04
2022-08-03T03:28:08.864Z,65.60
2022-08-03T03:30:39.898Z,65.81
2022-08-03T03:33:09.852Z,65.47
2022-08-03T03:35:39.220Z,65.65
2022-08-03T03:38:08.129Z,65.84
2022-08-03T03:40:36.724Z,65.72
2022-08-03T03:43:08.054Z,66.02
2022-08-03T03:45:36.729Z,65.59
2022-08-03T03:48:06.140Z,66.32
2022-08-03T03:50:37.625Z,66.46
2022-08-03T03:53:05.993Z,66.75
2022-08-03T03:55:37.453Z,66.34
2022-08-03T03:58:25.326Z,66.34
2022-08-03T04:00:53.928Z,66.15
2022-08-03T04:03:22.338Z,66.14
2022-08-03T04:06:09.706Z,66.28
2022-08-03T04:08:55.132Z,66.99
2022-08-03T04:11:29.073Z,66.77
2022-08-03T04:14:02.218Z,66.21
2022-08-03T04:16:33.587Z,66.11
2022-08-03T04:19:06.070Z,67.20
2022-08-03T04:21:38.474Z,67.68
2022-08-03T04:24:10.913Z,67.65
2022-08-03T04:26:42.701Z,66.96
2022-08-03T04:29:12.745Z,67.25
2022-08-03T04:31:43.084Z,67.02
2022-08-03T04:34:11.519Z,67.40
2022-08-03T04:36:49.151Z,68.61
2022-08-03T04:39:21.353Z,68.08
2022-08-03T04:42:07.535Z,68.12
2022-08-03T04:44:38.783Z,68.13
2022-08-03T04:47:07.009Z,68.35
2022-08-03T04:49:37.605Z,68.59
2022-08-03T04:52:09.932Z,68.84
2022-08-03T04:54:41.528Z,68.98
2022-08-03T04:57:09.663Z,69.12
2022-08-03T04:59:39.143Z,68.81
2022-08-03T05:02:09.573Z,69.39
2022-08-03T05:04:38.077Z,68.82
2022-08-03T05:07:12.231Z,69.18
2022-08-03T05:09:52.281Z,69.71
2022-08-03T05:12:20.539Z,69.80
2022-08-03T05:14:48.606Z,70.17
2022-08-03T05:17:16.648Z,70.31
2022-08-03T05:19:45.084Z,69.67
2022-08-03T05:22:14.603Z,70.16
2022-08-03T05:24:42.999Z,70.06
2022-08-03T05:27:17.543Z,70.22
2022-08-03T05:29:46.563Z,70.51
2022-08-03T05:32:15.132Z,70.51
2022-08-03T05:34:48.925Z,69.98
2022-08-03T05:37:21.807Z,70.34
2022-08-03T05:39:52.653Z,70.97
2022-08-03T05:42:21.899Z,70.62
2022-08-03T05:44:52.918Z,70.36
2022-08-03T05:47:28.409Z,70.40
2022-08-03T05:50:00.073Z,70.60
2022-08-03T05:52:30.333Z,70.49
2022-08-03T05:55:00.379Z,70.31
2022-08-03T05:57:30.951Z,70.62
2022-08-03T05:59:59.867Z,70.45
2022-08-03T06:02:30.572Z,69.99
2022-08-03T06:05:01.196Z,70.22
2022-08-03T06:07:32.855Z,70.20
2022-08-03T06:10:36.062Z,70.29
2022-08-03T06:12:56.925Z,70.26
2022-08-03T06:15:28.036Z,70.66
2022-08-03T06:18:02.033Z,70.66
2022-08-03T06:20:34.309Z,70.75
2022-08-03T06:23:08.172Z,70.63
2022-08-03T06:25:45.368Z,70.94
2022-08-03T06:28:42.677Z,70.56
2022-08-03T06:31:07.548Z,70.87
2022-08-03T06:34:30.602Z,70.12
2022-08-03T06:36:24.326Z,69.99
2022-08-03T06:38:56.316Z,70.56
2022-08-03T06:41:25.607Z,70.14
2022-08-03T06:44:03.229Z,70.10
2022-08-03T06:46:36.020Z,70.51
2022-08-03T06:49:07.436Z,70.23
2022-08-03T06:52:03.249Z,69.99
2022-08-03T06:54:27.753Z,70.30
2022-08-03T06:56:57.588Z,70.66
2022-08-03T07:00:07.550Z,70.03
2022-08-03T07:02:20.117Z,69.87
2022-08-03T07:04:49.109Z,69.89
2022-08-03T07:07:19.753Z,70.00
2022-08-03T07:09:56.504Z,69.59
2022-08-03T07:12:33.955Z,68.95
2022-08-03T07:15:05.700Z,67.96
2022-08-03T07:17:36.914Z,67.51
2022-08-03T07:20:08.074Z,67.14
2022-08-03T07:22:38.718Z,66.76
2022-08-03T07:25:11.602Z,66.56
2022-08-03T07:27:48.850Z,65.94
2022-08-03T07:30:22.044Z,66.20
2022-08-03T07:32:50.966Z,65.82
2022-08-03T07:35:25.057Z,65.72
2022-08-03T07:37:54.469Z,65.48
2022-08-03T07:40:25.122Z,65.45
2022-08-03T07:42:59.281Z,65.40
2022-08-03T07:45:27.708Z,65.00
2022-08-03T07:47:55.805Z,65.08
2022-08-03T07:50:24.427Z,64.92
2022-08-03T07:52:53.739Z,64.78
2022-08-03T07:55:23.361Z,64.89
2022-08-03T07:58:03.029Z,64.49
2022-08-03T08:00:31.568Z,64.48
2022-08-03T08:02:59.650Z,64.30
2022-08-03T08:05:28.334Z,64.50
2022-08-03T08:07:56.445Z,64.07
2022-08-03T08:10:24.672Z,64.38
2022-08-03T08:12:53.049Z,64.38
2022-08-03T08:15:22.740Z,64.11
2022-08-03T08:17:53.657Z,64.00
2022-08-03T08:20:30.843Z,64.28
2022-08-03T08:23:01.170Z,64.10
2022-08-03T08:25:30.687Z,64.25
2022-08-03T08:28:29.785Z,64.24
2022-08-03T08:30:51.460Z,64.33
2022-08-03T08:33:23.555Z,64.16
2022-08-03T08:35:54.447Z,64.04
2022-08-03T08:38:25.672Z,64.35
2022-08-03T08:40:57.888Z,64.21
2022-08-03T08:43:31.256Z,64.23
2022-08-03T08:46:01.760Z,63.82
2022-08-03T08:48:33.829Z,63.77
2022-08-03T08:51:06.118Z,63.79
2022-08-03T08:53:41.176Z,63.28
2022-08-03T08:56:12.975Z,63.45
2022-08-03T08:58:47.154Z,63.41
2022-08-03T09:01:20.560Z,63.02
2022-08-03T09:03:51.034Z,63.13
2022-08-03T09:06:20.588Z,62.83
2022-08-03T09:08:51.424Z,62.88
2022-08-03T09:11:57.760Z,62.70
2022-08-03T09:14:36.961Z,62.68
2022-08-03T09:17:08.307Z,62.99
2022-08-03T09:20:09.426Z,62.77
2022-08-03T09:22:53.240Z,62.88
2022-08-03T09:25:27.334Z,62.66
2022-08-03T09:27:58.457Z,62.53
2022-08-03T09:30:34.715Z,63.08
2022-08-03T09:33:08.131Z,62.90
2022-08-03T09:35:58.268Z,62.25
2022-08-03T09:38:30.452Z,62.60
2022-08-03T09:41:00.777Z,62.53
2022-08-03T09:43:48.199Z,62.19
2022-08-03T09:46:20.297Z,61.89
2022-08-03T09:48:54.270Z,61.80
2022-08-03T09:52:28.800Z,61.78
2022-08-03T09:54:30.878Z,62.08
2022-08-03T09:57:02.318Z,61.53
2022-08-03T09:59:34.500Z,61.74
2022-08-03T10:02:05.664Z,61.42
2022-08-03T10:04:49.432Z,61.24
2022-08-03T10:07:21.314Z,61.14
2022-08-03T10:10:31.200Z,61.25
2022-08-03T10:12:55.683Z,61.16
2022-08-03T10:16:25.185Z,60.82
2022-08-03T10:18:18.953Z,61.38
2022-08-03T10:20:54.623Z,61.32
2022-08-03T10:23:26.212Z,60.82
2022-08-03T10:26:04.709Z,60.69
2022-08-03T10:28:44.815Z,60.55
2022-08-03T10:31:17.186Z,60.45
2022-08-03T10:33:53.190Z,60.69
2022-08-03T10:36:25.029Z,60.06
2022-08-03T10:38:55.375Z,60.40
2022-08-03T10:41:27.913Z,60.68
2022-08-03T10:44:03.306Z,60.38
2022-08-03T10:46:32.336Z,60.03
2022-08-03T10:49:02.808Z,60.10
2022-08-03T10:51:34.399Z,59.73
2022-08-03T10:54:04.574Z,59.42
2022-08-03T10:57:10.966Z,59.96
2022-08-03T11:00:08.093Z,58.47
2022-08-03T11:03:04.847Z,58.92
2022-08-03T11:05:37.397Z,58.24
2022-08-03T11:08:38.150Z,58.22
2022-08-03T11:11:31.945Z,57.84
2022-08-03T11:14:03.662Z,58.10
2022-08-03T11:16:35.616Z,58.01
2022-08-03T11:19:07.768Z,57.83
2022-08-03T11:21:56.862Z,57.24
2022-08-03T11:25:05.579Z,56.37
2022-08-03T11:27:38.182Z,56.47
2022-08-03T11:30:12.385Z,57.20
2022-08-03T11:33:01.864Z,57.20
2022-08-03T11:35:36.787Z,56.17
2022-08-03T11:38:13.150Z,57.08
2022-08-03T11:40:49.538Z,55.56
2022-08-03T11:43:49.391Z,56.09
2022-08-03T11:46:29.798Z,54.81
2022-08-03T11:49:10.991Z,54.82
2022-08-03T11:51:42.283Z,55.70
2022-08-03T11:54:13.629Z,55.61
2022-08-03T11:56:51.473Z,54.99
2022-08-03T11:59:34.326Z,54.82
2022-08-03T12:02:09.564Z,55.06
2022-08-03T12:04:53.229Z,53.91
2022-08-03T12:07:24.411Z,54.11
2022-08-03T12:10:16.793Z,53.16
2022-08-03T12:12:48.173Z,53.64
2022-08-03T12:15:18.171Z,53.16
2022-08-03T12:17:49.774Z,52.80
2022-08-03T12:20:31.284Z,54.36
2022-08-03T12:23:07.758Z,52.26
2022-08-03T12:25:39.589Z,52.91
2022-08-03T12:28:36.479Z,52.53
2022-08-03T12:31:12.405Z,52.65
2022-08-03T12:33:59.161Z,51.81
2022-08-03T12:36:28.554Z,49.88
2022-08-03T12:38:57.917Z,48.84
2022-08-03T12:41:31.025Z,48.72
2022-08-03T12:44:00.308Z,48.11
2022-08-03T12:46:32.955Z,47.08
2022-08-03T12:49:03.553Z,48.27
2022-08-03T12:51:34.350Z,47.61
2022-08-03T12:54:03.018Z,47.53
2022-08-03T12:56:31.199Z,47.42
2022-08-03T12:59:00.509Z,47.53
2022-08-03T13:01:37.960Z,47.29
2022-08-03T13:04:33.207Z,47.76
2022-08-03T13:07:03.614Z,47.85
2022-08-03T13:09:41.752Z,47.20
2022-08-03T13:12:11.817Z,47.31
2022-08-03T13:14:41.624Z,45.49
2022-08-03T13:17:09.887Z,45.67
2022-08-03T13:19:38.628Z,45.92
2022-08-03T13:22:14.447Z,45.05
2022-08-03T13:24:43.619Z,44.61
2022-08-03T13:28:12.469Z,43.68
2022-08-03T13:30:01.914Z,44.03
2022-08-03T13:32:29.949Z,44.01
2022-08-03T13:35:00.984Z,43.25
2022-08-03T13:37:32.205Z,42.28
2022-08-03T13:40:04.826Z,43.34
2022-08-03T13:42:35.856Z,41.51
2022-08-03T13:45:06.708Z,41.50
2022-08-03T13:47:34.878Z,41.57
2022-08-03T13:50:03.337Z,42.35
2022-08-03T13:52:33.706Z,42.42
2022-08-03T13:55:02.366Z,41.04
2022-08-03T13:58:04.031Z,40.29
2022-08-03T14:00:27.226Z,40.62
2022-08-03T14:03:02.809Z,39.08
2022-08-03T14:05:34.077Z,38.71
2022-08-03T14:08:04.737Z,38.01
2022-08-03T14:10:34.736Z,38.33
2022-08-03T14:13:02.972Z,37.51
2022-08-03T14:15:37.879Z,38.17
2022-08-03T14:18:15.702Z,38.35
2022-08-03T14:20:56.793Z,36.80
2022-08-03T14:23:26.422Z,36.99
2022-08-03T14:25:55.490Z,37.43
2022-08-03T14:28:24.525Z,37.65
2022-08-03T14:30:56.056Z,37.80
2022-08-03T14:33:24.689Z,37.83
2022-08-03T14:35:53.308Z,38.75
2022-08-03T14:38:22.324Z,37.89
2022-08-03T14:40:51.628Z,37.71
2022-08-03T14:43:21.327Z,37.41
2022-08-03T14:45:52.197Z,37.80
2022-08-03T14:50:30.491Z,36.87
2022-08-03T14:51:10.268Z,37.15
2022-08-03T14:53:38.231Z,36.96
2022-08-03T14:56:10.366Z,37.38
2022-08-03T14:58:39.367Z,37.50
2022-08-03T15:02:03.057Z,37.70
2022-08-03T15:03:58.112Z,34.59
2022-08-03T15:06:26.085Z,32.44
2022-08-03T15:09:21.515Z,31.94
2022-08-03T15:11:44.854Z,32.63
2022-08-03T15:14:15.545Z,32.27
2022-08-03T15:16:46.192Z,32.16
2022-08-03T15:20:01.173Z,32.41
2022-08-03T15:22:09.082Z,32.30
2022-08-03T15:24:38.602Z,30.38
2022-08-03T15:27:10.366Z,30.70
2022-08-03T15:30:07.758Z,30.56
2022-08-03T15:32:33.999Z,30.14
2022-08-03T15:35:05.271Z,29.97
2022-08-03T15:37:33.361Z,30.13
2022-08-03T15:40:05.456Z,29.56
2022-08-03T15:42:34.563Z,29.65
2022-08-03T15:45:02.990Z,28.90
2022-08-03T15:47:31.210Z,28.84
2022-08-03T15:49:59.141Z,27.78
2022-08-03T15:52:28.873Z,28.00
2022-08-03T15:54:56.842Z,28.27
2022-08-03T15:57:24.924Z,28.76
2022-08-03T15:59:53.155Z,27.77
2022-08-03T16:02:21.425Z,27.10
2022-08-03T16:04:49.359Z,27.14
2022-08-03T16:07:37.576Z,27.05
2022-08-03T16:10:08.350Z,27.06
2022-08-03T16:12:39.228Z,27.47
2022-08-03T16:15:12.251Z,27.62
2022-08-03T16:17:41.373Z,28.25
2022-08-03T16:20:31.352Z,28.48
2022-08-03T16:23:11.390Z,28.87
2022-08-03T16:25:49.176Z,28.27
2022-08-03T16:28:21.936Z,28.20
2022-08-03T16:30:51.265Z,28.28
2022-08-03T16:33:21.671Z,27.77
2022-08-03T16:35:54.132Z,27.32
2022-08-03T16:38:24.942Z,26.61
2022-08-03T16:40:56.388Z,26.72
2022-08-03T16:43:27.752Z,26.95
2022-08-03T16:45:57.533Z,27.15
2022-08-03T16:48:29.080Z,27.39
2022-08-03T16:50:58.996Z,27.58
2022-08-03T16:53:33.732Z,27.73
2022-08-03T16:56:25.178Z,27.65
2022-08-03T16:58:57.168Z,27.70
2022-08-03T17:01:35.671Z,27.98
2022-08-03T17:04:12.110Z,28.34
2022-08-03T17:06:46.411Z,27.93
2022-08-03T17:09:20.768Z,28.05
2022-08-03T17:11:52.479Z,27.98
2022-08-03T17:14:29.327Z,28.29
2022-08-03T17:17:01.588Z,28.53
2022-08-03T17:19:33.096Z,28.67
2022-08-03T17:22:10.607Z,27.88
2022-08-03T17:24:42.577Z,27.29
2022-08-03T17:28:41.875Z,27.82
2022-08-03T17:30:13.505Z,28.05
2022-08-03T17:32:57.119Z,27.93
2022-08-03T17:35:36.709Z,28.13
2022-08-03T17:38:12.078Z,27.81
2022-08-03T17:40:50.220Z,27.80
2022-08-03T17:44:13.511Z,28.45
2022-08-03T17:46:16.903Z,28.44
2022-08-03T17:48:50.612Z,28.26
2022-08-03T17:51:29.110Z,28.64
2022-08-03T17:54:18.336Z,30.05
2022-08-03T17:56:58.921Z,32.94
2022-08-03T18:00:02.762Z,35.33
2022-08-03T18:03:03.838Z,36.77
2022-08-03T18:06:11.533Z,37.66
2022-08-03T18:08:28.500Z,37.86
2022-08-03T18:11:03.363Z,38.95
2022-08-03T18:13:45.275Z,39.53
2022-08-03T18:16:35.659Z,40.08
2022-08-03T18:19:14.267Z,40.67
2022-08-03T18:22:02.766Z,41.01
2022-08-03T18:24:34.732Z,41.80
2022-08-03T18:27:12.975Z,42.19
2022-08-03T18:29:45.139Z,42.14
2022-08-03T18:32:19.682Z,42.47
2022-08-03T18:34:53.489Z,43.51
2022-08-03T18:37:25.431Z,43.97
2022-08-03T18:39:57.949Z,44.19
2022-08-03T18:42:27.064Z,43.72
2022-08-03T18:44:56.743Z,44.55
2022-08-03T18:47:50.654Z,44.70
2022-08-03T18:50:29.472Z,44.92
2022-08-03T18:53:19.452Z,44.47
2022-08-03T18:56:02.309Z,45.22
2022-08-03T18:58:38.775Z,45.63
2022-08-03T19:01:59.875Z,45.96
2022-08-03T19:04:12.625Z,46.62
2022-08-03T19:06:45.011Z,47.10
2022-08-03T19:09:20.726Z,46.95
2022-08-03T19:12:13.303Z,47.45
2022-08-03T19:14:48.298Z,48.21
2022-08-03T19:17:21.377Z,48.37
2022-08-03T19:19:52.935Z,48.81
2022-08-03T19:22:22.368Z,48.39
2022-08-03T19:24:55.190Z,48.87
2022-08-03T19:27:26.921Z,48.87
2022-08-03T19:30:01.236Z,48.72
2022-08-03T19:32:33.593Z,49.44
2022-08-03T19:35:05.224Z,49.33
2022-08-03T19:37:42.098Z,49.14
2022-08-03T19:40:12.443Z,49.40
2022-08-03T19:42:46.393Z,48.96
2022-08-03T19:45:22.330Z,49.26
2022-08-03T19:48:14.366Z,48.79
2022-08-03T19:50:44.893Z,49.22
2022-08-03T19:53:14.129Z,49.36
2022-08-03T19:55:48.801Z,49.08
2022-08-03T19:58:28.760Z,49.42
2022-08-03T20:00:57.627Z,49.01
2022-08-03T20:03:28.012Z,49.66
2022-08-03T20:06:17.040Z,49.48
2022-08-03T20:08:45.159Z,49.59
2022-08-03T20:11:16.908Z,49.60
2022-08-03T20:13:48.261Z,49.74
2022-08-03T20:16:16.766Z,49.45
2022-08-03T20:18:45.584Z,49.36
2022-08-03T20:21:18.920Z,49.36
2022-08-03T20:24:01.789Z,49.83
2022-08-03T20:26:33.556Z,49.39
2022-08-03T20:29:09.107Z,49.58
2022-08-03T20:31:38.622Z,49.26
2022-08-03T20:34:09.123Z,49.67
2022-08-03T20:36:38.675Z,49.42
2022-08-03T20:39:07.705Z,49.08
2022-08-03T20:41:37.109Z,49.94
2022-08-03T20:44:06.826Z,49.92
2022-08-03T20:46:50.231Z,49.57
2022-08-03T20:49:23.861Z,49.70
2022-08-03T20:51:53.945Z,49.76
2022-08-03T20:54:30.664Z,49.72
2022-08-03T20:57:03.577Z,49.61
2022-08-03T20:59:46.734Z,49.34
2022-08-03T21:02:19.870Z,49.41
2022-08-03T21:04:57.475Z,49.51
2022-08-03T21:08:05.368Z,49.58
2022-08-03T21:10:18.101Z,50.00
2022-08-03T21:12:52.724Z,49.82
2022-08-03T21:16:06.547Z,49.73
2022-08-03T21:18:15.580Z,49.64
2022-08-03T21:20:47.346Z,49.20
2022-08-03T21:23:35.127Z,49.32
2022-08-03T21:26:09.206Z,49.04
2022-08-03T21:28:39.115Z,48.48
2022-08-03T21:31:08.542Z,48.59
2022-08-03T21:33:37.049Z,48.72
2022-08-03T21:36:07.861Z,48.33
2022-08-03T21:38:55.723Z,48.04
2022-08-03T21:41:29.018Z,47.86
2022-08-03T21:44:00.255Z,47.77
2022-08-03T21:46:34.514Z,47.24
2022-08-03T21:50:05.026Z,47.12
2022-08-03T21:52:01.214Z,47.05
2022-08-03T21:54:39.588Z,47.14
2022-08-03T21:57:17.863Z,47.29
2022-08-03T21:59:57.101Z,46.85
2022-08-03T22:02:31.531Z,46.11
2022-08-03T22:05:04.899Z,45.55
2022-08-03T22:07:39.286Z,46.07
2022-08-03T22:10:12.664Z,46.03
2022-08-03T22:12:46.856Z,45.88
2022-08-03T22:15:16.343Z,45.76
2022-08-03T22:17:54.748Z,45.50
2022-08-03T22:20:29.348Z,45.47
2022-08-03T22:23:09.872Z,45.68
2022-08-03T22:25:42.927Z,45.68
2022-08-03T22:28:16.705Z,45.58
2022-08-03T22:30:47.774Z,45.38
2022-08-03T22:33:19.104Z,45.43
2022-08-03T22:35:52.574Z,45.38
2022-08-03T22:38:22.389Z,45.09
2022-08-03T22:40:53.464Z,44.84
2022-08-03T22:43:26.310Z,45.13
2022-08-03T22:46:09.160Z,45.17
2022-08-03T22:48:42.833Z,45.40
2022-08-03T22:51:13.939Z,45.34
2022-08-03T22:53:47.000Z,45.39
2022-08-03T22:56:20.829Z,44.89
2022-08-03T22:58:53.100Z,45.25
2022-08-03T23:01:27.037Z,45.44
2022-08-03T23:04:06.057Z,45.42
2022-08-03T23:06:39.849Z,45.48
2022-08-03T23:09:12.159Z,45.53
2022-08-03T23:11:47.957Z,45.66
2022-08-03T23:14:21.798Z,45.34
2022-08-03T23:16:58.221Z,45.89
2022-08-03T23:19:30.220Z,45.31
2022-08-03T23:22:05.866Z,45.97
2022-08-03T23:24:38.597Z,45.06
2022-08-03T23:27:14.119Z,46.49
2022-08-03T23:29:46.993Z,46.16
2022-08-03T23:32:19.128Z,47.02
2022-08-03T23:35:09.559Z,47.61
2022-08-03T23:38:21.634Z,46.71
2022-08-03T23:40:31.069Z,47.31
2022-08-03T23:43:03.081Z,47.98
2022-08-03T23:45:35.722Z,47.61
2022-08-03T23:48:03.877Z,47.63
2022-08-03T23:50:42.462Z,47.78
2022-08-03T23:53:17.980Z,48.83
2022-08-03T23:56:02.042Z,49.49
2022-08-03T23:58:44.986Z,50.34
